createdAt,value
2024-01-03T00:02:23.334Z,95024.06
2024-01-03T00:04:52.026Z,95026.88
2024-01-03T00:07:20.471Z,95020.31
2024-01-03T00:09:48.855Z,95009.03
2024-01-03T00:12:25.990Z,95033.00
2024-01-03T00:14:54.311Z,95028.44
2024-01-03T00:17:24.134Z,95031.91
2024-01-03T00:19:57.287Z,94990.13
2024-01-03T00:22:33.520Z,95034.78
2024-01-03T00:25:06.413Z,95023.56
2024-01-03T00:27:35.217Z,95016.06
2024-01-03T00:30:08.431Z,95044.53
2024-01-03T00:32:44.818Z,95031.97
2024-01-03T00:35:16.647Z,95019.81
2024-01-03T00:37:45.192Z,95025.72
2024-01-03T00:40:57.097Z,95027.88
2024-01-03T00:43:25.463Z,95002.13
2024-01-03T00:45:53.909Z,95028.78
2024-01-03T00:48:23.926Z,95018.78
2024-01-03T00:50:52.601Z,95022.09
2024-01-03T00:53:22.127Z,95016.22
2024-01-03T00:55:52.010Z,95018.59
2024-01-03T00:58:21.081Z,95016.13
2024-01-03T01:00:50.756Z,95035.03
2024-01-03T01:03:19.658Z,95023.03
2024-01-03T01:05:49.527Z,95025.69
2024-01-03T01:08:20.533Z,95037.03
2024-01-03T01:10:49.250Z,95022.75
2024-01-03T01:13:17.315Z,95020.09
2024-01-03T01:15:45.449Z,95010.81
2024-01-03T01:18:14.102Z,94999.44
2024-01-03T01:20:42.502Z,95015.06
2024-01-03T01:23:12.153Z,95009.38
2024-01-03T01:25:40.357Z,94999.97
2024-01-03T01:28:09.368Z,95004.41
2024-01-03T01:30:37.683Z,95010.53
2024-01-03T01:33:06.609Z,94993.22
2024-01-03T01:35:34.853Z,94997.72
2024-01-03T01:38:07.180Z,94988.72
2024-01-03T01:40:36.896Z,94964.56
2024-01-03T01:43:05.232Z,94988.03
2024-01-03T01:45:33.837Z,94991.75
2024-01-03T01:48:03.452Z,94990.31
2024-01-03T01:50:32.054Z,94999.16
2024-01-03T01:53:00.682Z,94996.56
2024-01-03T01:55:29.440Z,94998.66
2024-01-03T01:57:59.087Z,94954.94
2024-01-03T02:00:27.416Z,94986.53
2024-01-03T02:02:55.790Z,94956.59
2024-01-03T02:05:24.145Z,94995.94
2024-01-03T02:07:52.481Z,94988.53
2024-01-03T02:10:20.611Z,94991.56
2024-01-03T02:12:48.793Z,95008.88
2024-01-03T02:15:18.355Z,95005.41
2024-01-03T02:17:47.688Z,95003.25
2024-01-03T02:20:16.418Z,95005.91
2024-01-03T02:22:46.085Z,95002.50
2024-01-03T02:25:14.239Z,95004.00
2024-01-03T02:27:42.390Z,94990.19
2024-01-03T02:30:11.365Z,94986.09
2024-01-03T02:32:39.663Z,94980.66
2024-01-03T02:35:08.352Z,94985.41
2024-01-03T02:37:37.005Z,94962.47
2024-01-03T02:40:07.815Z,94969.88
2024-01-03T02:42:35.925Z,94980.25
2024-01-03T02:45:04.123Z,94984.25
2024-01-03T02:47:32.287Z,94982.59
2024-01-03T02:50:00.859Z,94964.13
2024-01-03T02:52:29.402Z,94943.53
2024-01-03T02:54:57.496Z,94956.47
2024-01-03T02:57:27.369Z,94967.22
2024-01-03T02:59:55.959Z,94954.13
2024-01-03T03:02:24.241Z,94937.59
2024-01-03T03:04:52.557Z,94956.44
2024-01-03T03:07:20.818Z,94959.31
2024-01-03T03:09:48.962Z,94955.16
2024-01-03T03:12:17.143Z,94911.69
2024-01-03T03:14:46.969Z,94954.19
2024-01-03T03:17:15.432Z,94956.00
2024-01-03T03:19:43.630Z,94957.72
2024-01-03T03:22:11.787Z,94934.66
2024-01-03T03:24:39.933Z,94945.03
2024-01-03T03:27:08.112Z,94941.84
2024-01-03T03:29:36.347Z,94943.84
2024-01-03T03:32:06.530Z,94947.66
2024-01-03T03:34:34.976Z,94939.97
2024-01-03T03:37:03.273Z,94938.41
2024-01-03T03:39:31.541Z,94919.91
2024-01-03T03:41:59.711Z,94919.50
2024-01-03T03:44:27.945Z,94927.53
2024-01-03T03:46:56.019Z,94920.97
2024-01-03T03:49:25.559Z,94909.63
2024-01-03T03:51:53.736Z,94923.09
2024-01-03T03:54:21.979Z,94917.09
2024-01-03T03:56:50.597Z,94921.84
2024-01-03T03:59:18.900Z,94917.59
2024-01-03T04:01:50.859Z,94848.25
2024-01-03T04:04:20.072Z,94936.66
2024-01-03T04:06:49.908Z,94938.31
2024-01-03T04:09:20.453Z,94933.38
2024-01-03T04:11:48.718Z,94929.03
2024-01-03T04:14:16.842Z,94927.19
2024-01-03T04:16:45.211Z,94889.19
2024-01-03T04:19:13.368Z,94919.97
2024-01-03T04:21:41.979Z,94923.81
2024-01-03T04:24:11.559Z,94920.03
2024-01-03T04:26:39.717Z,94916.00
2024-01-03T04:29:09.240Z,94928.09
2024-01-03T04:31:37.463Z,94938.16
2024-01-03T04:34:05.833Z,94941.22
2024-01-03T04:36:34.099Z,94938.16
2024-01-03T04:39:02.548Z,94933.63
2024-01-03T04:41:32.409Z,94950.69
2024-01-03T04:44:01.009Z,94936.13
2024-01-03T04:46:29.161Z,94937.41
2024-01-03T04:48:57.542Z,94938.31
2024-01-03T04:51:25.889Z,94880.16
2024-01-03T04:53:54.123Z,94940.00
2024-01-03T04:56:23.206Z,94932.34
2024-01-03T04:58:52.806Z,94939.69
2024-01-03T05:01:21.126Z,94929.69
2024-01-03T05:03:49.330Z,94910.06
2024-01-03T05:06:17.589Z,94937.38
2024-01-03T05:08:45.855Z,94902.75
2024-01-03T05:11:17.271Z,94917.13
2024-01-03T05:13:45.843Z,94951.06
2024-01-03T05:16:15.692Z,94938.78
2024-01-03T05:18:43.992Z,94939.69
2024-01-03T05:21:12.782Z,94938.75
2024-01-03T05:23:40.992Z,94939.25
2024-01-03T05:26:09.144Z,94940.50
2024-01-03T05:28:37.341Z,94945.81
2024-01-03T05:31:05.770Z,94934.94
2024-01-03T05:33:35.519Z,94951.03
2024-01-03T05:36:05.949Z,94944.59
2024-01-03T05:38:36.894Z,94946.03
2024-01-03T05:41:08.193Z,94943.91
2024-01-03T05:43:37.351Z,94945.53
2024-01-03T05:46:05.806Z,94944.97
2024-01-03T05:48:36.607Z,94947.09
2024-01-03T05:51:05.842Z,94942.06
2024-01-03T05:53:34.140Z,94930.44
2024-01-03T05:56:03.216Z,94927.59
2024-01-03T05:58:31.360Z,94938.03
2024-01-03T06:00:59.732Z,94937.16
2024-01-03T06:03:27.834Z,94937.09
2024-01-03T06:05:57.566Z,94942.34
2024-01-03T06:08:25.884Z,94926.66
2024-01-03T06:10:54.401Z,94792.06
2024-01-03T06:13:23.714Z,94921.59
2024-01-03T06:15:51.900Z,94932.16
2024-01-03T06:18:20.337Z,94934.09
2024-01-03T06:20:48.702Z,94936.09
2024-01-03T06:23:18.441Z,94929.56
2024-01-03T06:25:46.678Z,94918.69
2024-01-03T06:28:15.488Z,94889.91
2024-01-03T06:30:44.547Z,94943.69
2024-01-03T06:33:13.056Z,94941.03
2024-01-03T06:35:41.336Z,94935.81
2024-01-03T06:38:09.848Z,94827.31
2024-01-03T06:40:39.548Z,94908.22
2024-01-03T06:43:08.622Z,94841.28
2024-01-03T06:45:37.171Z,94906.22
2024-01-03T06:48:05.819Z,94903.94
2024-01-03T06:50:36.108Z,94905.44
2024-01-03T06:53:04.459Z,94876.22
2024-01-03T06:55:35.178Z,94928.06
2024-01-03T06:58:05.324Z,94938.81
2024-01-03T07:00:33.555Z,94940.91
2024-01-03T07:03:01.773Z,94927.66
2024-01-03T07:05:30.032Z,94927.16
2024-01-03T07:07:59.409Z,94909.09
2024-01-03T07:10:32.601Z,94918.38
2024-01-03T07:13:01.186Z,94888.06
2024-01-03T07:15:31.191Z,94913.34
2024-01-03T07:18:00.818Z,94914.34
2024-01-03T07:20:29.509Z,94912.75
2024-01-03T07:22:57.768Z,94917.09
2024-01-03T07:25:25.892Z,94925.97
2024-01-03T07:27:54.158Z,94919.44
2024-01-03T07:30:27.329Z,94916.28
2024-01-03T07:32:59.148Z,94912.34
2024-01-03T07:35:27.831Z,94911.66
2024-01-03T07:37:56.820Z,94903.47
2024-01-03T07:40:25.178Z,94913.72
2024-01-03T07:42:53.486Z,94914.69
2024-01-03T07:45:21.751Z,94913.53
2024-01-03T07:47:50.054Z,94907.06
2024-01-03T07:50:21.240Z,94795.47
2024-01-03T07:52:49.525Z,94921.06
2024-01-03T07:55:17.802Z,94921.34
2024-01-03T07:57:46.555Z,94914.81
2024-01-03T08:00:18.556Z,94914.03
2024-01-03T08:02:46.767Z,94915.09
2024-01-03T08:05:15.206Z,94904.25
2024-01-03T08:07:47.342Z,94864.50
2024-01-03T08:10:15.667Z,94910.03
2024-01-03T08:12:44.076Z,94902.66
2024-01-03T08:15:12.328Z,94897.91
2024-01-03T08:17:40.693Z,94889.03
2024-01-03T08:20:11.107Z,94910.38
2024-01-03T08:22:39.520Z,94905.94
2024-01-03T08:25:11.741Z,94908.88
2024-01-03T08:27:40.418Z,94907.72
2024-01-03T08:30:09.838Z,94909.97
2024-01-03T08:32:39.005Z,94911.94
2024-01-03T08:35:07.508Z,94923.31
2024-01-03T08:37:35.746Z,94913.44
2024-01-03T08:40:06.981Z,94903.56
2024-01-03T08:42:37.345Z,94912.22
2024-01-03T08:45:07.566Z,94906.03
2024-01-03T08:47:36.781Z,94911.75
2024-01-03T08:50:05.554Z,94902.78
2024-01-03T08:52:33.915Z,94886.53
2024-01-03T08:55:02.198Z,94884.41
2024-01-03T08:57:32.001Z,94893.53
2024-01-03T09:00:01.922Z,94887.41
2024-01-03T09:02:30.307Z,94864.22
2024-01-03T09:04:58.419Z,94862.41
2024-01-03T09:07:26.537Z,94855.97
2024-01-03T09:09:54.827Z,94862.53
2024-01-03T09:12:25.793Z,94872.00
2024-01-03T09:14:54.009Z,94868.84
2024-01-03T09:17:23.606Z,94873.59
2024-01-03T09:19:51.834Z,94860.81
2024-01-03T09:22:20.565Z,94871.47
2024-01-03T09:24:48.774Z,94844.16
2024-01-03T09:27:16.957Z,94851.28
2024-01-03T09:29:45.220Z,94853.94
2024-01-03T09:32:13.372Z,94865.28
2024-01-03T09:34:42.959Z,94851.97
2024-01-03T09:37:11.590Z,94855.66
2024-01-03T09:39:39.672Z,94852.81
2024-01-03T09:42:09.200Z,94841.97
2024-01-03T09:44:37.989Z,94847.16
2024-01-03T09:47:07.964Z,94837.63
2024-01-03T09:49:36.720Z,94820.66
2024-01-03T09:52:12.622Z,94837.75
2024-01-03T09:54:42.009Z,94837.28
2024-01-03T09:57:12.579Z,94858.19
2024-01-03T09:59:40.818Z,94853.53
2024-01-03T10:02:10.541Z,94860.72
2024-01-03T10:04:38.732Z,94847.63
2024-01-03T10:07:08.248Z,94849.66
2024-01-03T10:09:45.690Z,94838.19
2024-01-03T10:12:19.197Z,94843.09
2024-01-03T10:14:48.114Z,94826.34
2024-01-03T10:17:16.400Z,94828.56
2024-01-03T10:19:44.839Z,94824.75
2024-01-03T10:22:20.515Z,94810.22
2024-01-03T10:24:48.716Z,94827.25
2024-01-03T10:27:17.355Z,94817.72
2024-01-03T10:29:46.070Z,94812.41
2024-01-03T10:32:17.163Z,94810.69
2024-01-03T10:34:45.490Z,94803.50
2024-01-03T10:37:15.848Z,94801.16
2024-01-03T10:39:45.780Z,94786.75
2024-01-03T10:42:14.530Z,94787.81
2024-01-03T10:44:45.677Z,94776.88
2024-01-03T10:47:13.919Z,94784.88
2024-01-03T10:49:42.099Z,94770.91
2024-01-03T10:52:12.215Z,94773.13
2024-01-03T10:54:50.934Z,94780.53
2024-01-03T10:57:24.494Z,94786.81
2024-01-03T11:00:01.858Z,94761.34
2024-01-03T11:02:38.104Z,94730.88
2024-01-03T11:05:15.738Z,94752.31
2024-01-03T11:07:51.502Z,94738.00
2024-01-03T11:10:52.612Z,94759.00
2024-01-03T11:13:30.627Z,94761.50
2024-01-03T11:15:59.696Z,94752.22
2024-01-03T11:18:53.985Z,94751.13
2024-01-03T11:21:43.570Z,94740.91
2024-01-03T11:24:55.409Z,94752.25
2024-01-03T11:27:26.616Z,94746.44
2024-01-03T11:29:59.038Z,94736.72
2024-01-03T11:32:35.765Z,94738.78
2024-01-03T11:35:11.075Z,94738.28
2024-01-03T11:37:41.385Z,94649.25
2024-01-03T11:40:20.937Z,94720.88
2024-01-03T11:42:59.411Z,94726.00
2024-01-03T11:45:28.281Z,94704.41
2024-01-03T11:47:58.525Z,94728.56
2024-01-03T11:50:35.496Z,94718.59
2024-01-03T11:53:10.557Z,94722.66
2024-01-03T11:55:39.276Z,94722.19
2024-01-03T11:58:09.598Z,94724.81
2024-01-03T12:00:37.962Z,94710.19
2024-01-03T12:03:07.017Z,94696.19
2024-01-03T12:05:46.749Z,94673.44
2024-01-03T12:08:15.857Z,94711.94
2024-01-03T12:10:44.290Z,94710.09
2024-01-03T12:13:16.848Z,94712.38
2024-01-03T12:15:51.920Z,94704.00
2024-01-03T12:18:23.959Z,94586.88
2024-01-03T12:20:55.710Z,94713.72
2024-01-03T12:23:23.968Z,94709.72
2024-01-03T12:25:54.442Z,94696.50
2024-01-03T12:28:25.009Z,94687.63
2024-01-03T12:30:53.521Z,94707.66
2024-01-03T12:33:26.410Z,94640.69
2024-01-03T12:36:00.217Z,94695.91
2024-01-03T12:38:28.626Z,94689.84
2024-01-03T12:40:59.360Z,94691.41
2024-01-03T12:43:30.613Z,94688.69
2024-01-03T12:45:59.567Z,94691.03
2024-01-03T12:48:28.361Z,94694.78
2024-01-03T12:50:56.823Z,94686.41
2024-01-03T12:53:25.522Z,94685.94
2024-01-03T12:55:54.489Z,94694.44
2024-01-03T12:58:22.832Z,94690.47
2024-01-03T13:00:52.645Z,94683.78
2024-01-03T13:03:21.932Z,94687.50
2024-01-03T13:05:50.286Z,94677.56
2024-01-03T13:08:18.876Z,94681.09
2024-01-03T13:10:47.541Z,94676.28
2024-01-03T13:13:15.697Z,94582.44
2024-01-03T13:15:47.206Z,94679.53
2024-01-03T13:18:17.455Z,94681.09
2024-01-03T13:20:45.809Z,94687.78
2024-01-03T13:23:14.654Z,94682.28
2024-01-03T13:25:43.096Z,94695.66
2024-01-03T13:28:12.228Z,94683.47
2024-01-03T13:30:41.195Z,94684.03
2024-01-03T13:33:10.064Z,94680.72
2024-01-03T13:35:40.096Z,94672.97
2024-01-03T13:38:09.063Z,94644.13
2024-01-03T13:40:37.963Z,94672.06
2024-01-03T13:43:06.375Z,94672.00
2024-01-03T13:45:34.665Z,94672.72
2024-01-03T13:48:03.554Z,94676.75
2024-01-03T13:50:32.025Z,94670.56
2024-01-03T13:53:01.728Z,94679.88
2024-01-03T13:55:30.169Z,94674.81
2024-01-03T13:58:01.663Z,94669.16
2024-01-03T14:00:31.878Z,94656.63
2024-01-03T14:03:00.222Z,94654.38
2024-01-03T14:05:28.717Z,94664.78
2024-01-03T14:07:56.971Z,94658.41
2024-01-03T14:10:26.614Z,94653.63
2024-01-03T14:12:55.392Z,94653.81
2024-01-03T14:15:24.261Z,94652.22
2024-01-03T14:17:52.627Z,94652.66
2024-01-03T14:20:20.902Z,94656.78
2024-01-03T14:22:49.056Z,94681.03
2024-01-03T14:25:17.373Z,94667.16
2024-01-03T14:27:46.999Z,94680.19
2024-01-03T14:30:17.905Z,94670.50
2024-01-03T14:32:47.037Z,94671.34
2024-01-03T14:35:17.047Z,94677.34
2024-01-03T14:37:45.475Z,94673.56
2024-01-03T14:40:16.530Z,94671.63
2024-01-03T14:42:49.462Z,94682.34
2024-01-03T14:45:18.335Z,94678.53
2024-01-03T14:47:47.529Z,94681.69
2024-01-03T14:50:16.123Z,94689.75
2024-01-03T14:52:44.544Z,94687.75
2024-01-03T14:55:13.435Z,94690.66
2024-01-03T14:57:42.081Z,94686.72
2024-01-03T15:00:15.173Z,94685.94
2024-01-03T15:02:55.223Z,94654.84
2024-01-03T15:05:33.184Z,94679.13
2024-01-03T15:08:01.804Z,94648.03
2024-01-03T15:10:30.036Z,94684.66
2024-01-03T15:12:58.302Z,94687.09
2024-01-03T15:15:27.851Z,94688.84
2024-01-03T15:17:56.368Z,94684.44
2024-01-03T15:20:24.941Z,94658.06
2024-01-03T15:22:53.198Z,94667.63
2024-01-03T15:25:21.318Z,94678.94
2024-01-03T15:27:49.928Z,94688.16
2024-01-03T15:30:18.991Z,94685.28
2024-01-03T15:32:49.201Z,94698.41
2024-01-03T15:35:17.407Z,94674.09
2024-01-03T15:37:45.601Z,94683.31
2024-01-03T15:40:17.815Z,94691.97
2024-01-03T15:42:47.477Z,94696.66
2024-01-03T15:45:16.059Z,94706.84
2024-01-03T15:47:49.142Z,94707.38
2024-01-03T15:50:19.363Z,94707.53
2024-01-03T15:52:47.541Z,94716.63
2024-01-03T15:55:17.146Z,94688.34
2024-01-03T15:57:47.911Z,94723.47
2024-01-03T16:00:17.139Z,94708.31
2024-01-03T16:02:45.474Z,94711.94
2024-01-03T16:05:13.693Z,94706.88
2024-01-03T16:07:43.364Z,94702.03
2024-01-03T16:10:11.605Z,94722.97
2024-01-03T16:12:39.718Z,94727.69
2024-01-03T16:15:08.292Z,94719.53
2024-01-03T16:17:37.811Z,94707.03
2024-01-03T16:20:09.454Z,94692.22
2024-01-03T16:22:38.626Z,94590.47
2024-01-03T16:25:12.556Z,94706.56
2024-01-03T16:27:42.755Z,94690.00
2024-01-03T16:30:13.003Z,94709.53
2024-01-03T16:32:42.835Z,94711.41
2024-01-03T16:35:14.003Z,94702.31
2024-01-03T16:37:44.227Z,94727.84
2024-01-03T16:40:14.926Z,94730.97
2024-01-03T16:42:45.921Z,94732.28
2024-01-03T16:45:15.706Z,94727.31
2024-01-03T16:47:46.356Z,94733.44
2024-01-03T16:50:14.939Z,94684.03
2024-01-03T16:52:43.749Z,94715.91
2024-01-03T16:55:13.493Z,94724.94
2024-01-03T16:57:42.808Z,94735.38
2024-01-03T17:00:13.063Z,94723.88
2024-01-03T17:02:41.613Z,94729.19
2024-01-03T17:05:12.306Z,94726.19
2024-01-03T17:07:42.283Z,94725.72
2024-01-03T17:10:11.150Z,94716.09
2024-01-03T17:12:40.758Z,94724.63
2024-01-03T17:15:12.865Z,94728.22
2024-01-03T17:17:42.984Z,94733.63
2024-01-03T17:20:12.861Z,94742.19
2024-01-03T17:22:41.039Z,94712.78
2024-01-03T17:25:10.359Z,94734.31
2024-01-03T17:27:39.274Z,94741.91
2024-01-03T17:30:15.597Z,94727.16
2024-01-03T17:32:44.749Z,94730.09
2024-01-03T17:35:13.037Z,94740.19
2024-01-03T17:37:41.657Z,94742.81
2024-01-03T17:40:12.528Z,94734.28
2024-01-03T17:42:40.972Z,94746.28
2024-01-03T17:45:11.920Z,94744.91
2024-01-03T17:47:40.623Z,94738.41
2024-01-03T17:50:10.011Z,94748.19
2024-01-03T17:52:38.488Z,94730.63
2024-01-03T17:55:07.186Z,94733.28
2024-01-03T17:57:36.924Z,94725.91
2024-01-03T18:00:06.193Z,94748.69
2024-01-03T18:02:36.624Z,94710.38
2024-01-03T18:05:05.782Z,94744.31
2024-01-03T18:07:34.543Z,94724.19
2024-01-03T18:10:04.297Z,94725.16
2024-01-03T18:12:32.722Z,94725.03
2024-01-03T18:15:01.696Z,94725.34
2024-01-03T18:17:30.134Z,94715.41
2024-01-03T18:20:02.086Z,94712.22
2024-01-03T18:22:33.543Z,94725.91
2024-01-03T18:25:03.469Z,94718.97
2024-01-03T18:27:32.037Z,94703.31
2024-01-03T18:30:00.513Z,94719.50
2024-01-03T18:32:29.174Z,94728.91
2024-01-03T18:34:59.123Z,94733.31
2024-01-03T18:37:29.157Z,94728.84
2024-01-03T18:39:58.058Z,94726.34
2024-01-03T18:42:26.487Z,94726.84
2024-01-03T18:44:55.066Z,94722.56
2024-01-03T18:47:23.670Z,94734.22
2024-01-03T18:49:52.650Z,94730.44
2024-01-03T18:52:22.047Z,94684.22
2024-01-03T18:54:51.706Z,94734.84
2024-01-03T18:57:20.508Z,94735.75
2024-01-03T18:59:50.639Z,94736.03
2024-01-03T19:02:19.805Z,94695.03
2024-01-03T19:04:48.964Z,94745.13
2024-01-03T19:07:17.285Z,94738.41
2024-01-03T19:09:46.081Z,94698.09
2024-01-03T19:12:16.699Z,94734.09
2024-01-03T19:17:29.192Z,94734.38
2024-01-03T19:19:57.712Z,94742.63
2024-01-03T19:22:26.623Z,94744.84
2024-01-03T19:24:55.753Z,94749.03
2024-01-03T19:27:26.481Z,94745.09
2024-01-03T19:29:54.955Z,94744.03
2024-01-03T19:32:23.240Z,94744.31
2024-01-03T19:34:51.547Z,94744.41
2024-01-03T19:37:21.896Z,94717.31
2024-01-03T19:39:50.499Z,94736.09
2024-01-03T19:42:26.877Z,94711.66
2024-01-03T19:44:57.389Z,94745.66
2024-01-03T19:47:25.683Z,94742.28
2024-01-03T19:49:54.586Z,94738.16
2024-01-03T19:52:23.329Z,94742.91
2024-01-03T19:54:51.421Z,94745.38
2024-01-03T19:57:20.173Z,94750.13
2024-01-03T19:59:50.953Z,94752.13
2024-01-03T20:02:19.490Z,94742.13
2024-01-03T20:04:47.757Z,94724.91
2024-01-03T20:07:16.607Z,94733.75
2024-01-03T20:09:45.185Z,94741.72
2024-01-03T20:12:14.586Z,94747.88
2024-01-03T20:14:42.950Z,94748.44
2024-01-03T20:17:23.448Z,94751.91
2024-01-03T20:19:53.074Z,94725.72
2024-01-03T20:22:23.325Z,94723.03
2024-01-03T20:24:59.185Z,94729.72
2024-01-03T20:27:29.652Z,94725.44
2024-01-03T20:29:58.029Z,94745.19
2024-01-03T20:32:27.887Z,94737.63
2024-01-03T20:34:57.316Z,94704.44
2024-01-03T20:37:26.821Z,94738.91
2024-01-03T20:39:55.404Z,94745.44
2024-01-03T20:42:25.740Z,94749.22
2024-01-03T20:44:54.041Z,94749.72
2024-01-03T20:47:23.079Z,94729.94
2024-01-03T20:49:56.089Z,94744.56
2024-01-03T20:52:25.874Z,94735.59
2024-01-03T20:54:54.389Z,94751.66
2024-01-03T20:57:24.848Z,94753.00
2024-01-03T20:59:55.013Z,94749.78
2024-01-03T21:02:23.401Z,94741.13
2024-01-03T21:04:53.310Z,94730.06
2024-01-03T21:07:21.488Z,94703.59
2024-01-03T21:09:49.808Z,94741.50
2024-01-03T21:12:18.061Z,94728.97
2024-01-03T21:14:46.399Z,94721.25
2024-01-03T21:17:14.847Z,94721.97
2024-01-03T21:19:43.276Z,94722.66
2024-01-03T21:22:13.851Z,94733.66
2024-01-03T21:24:43.103Z,94731.09
2024-01-03T21:27:44.416Z,94727.75
2024-01-03T21:30:00.317Z,94728.09
2024-01-03T21:32:28.621Z,94724.97
2024-01-03T21:34:57.962Z,94722.34
2024-01-03T21:37:27.562Z,94727.31
2024-01-03T21:39:56.328Z,94719.97
2024-01-03T21:42:24.815Z,94684.75
2024-01-03T21:44:53.146Z,94721.84
2024-01-03T21:47:21.376Z,94718.41
2024-01-03T21:49:49.499Z,94717.28
2024-01-03T21:52:17.719Z,94715.34
2024-01-03T21:54:47.436Z,94669.03
2024-01-03T21:57:17.519Z,94709.78
2024-01-03T21:59:46.632Z,94706.16
2024-01-03T22:02:14.901Z,94714.53
2024-01-03T22:04:45.699Z,94713.75
2024-01-03T22:07:13.821Z,94711.72
2024-01-03T22:09:41.925Z,94707.78
2024-01-03T22:12:11.790Z,94708.56
2024-01-03T22:14:47.067Z,94715.81
2024-01-03T22:17:16.417Z,94716.75
2024-01-03T22:19:45.543Z,94701.97
2024-01-03T22:22:13.871Z,94697.84
2024-01-03T22:24:42.061Z,94704.00
2024-01-03T22:27:11.792Z,94699.78
2024-01-03T22:29:40.949Z,94680.41
2024-01-03T22:32:09.191Z,94617.81
2024-01-03T22:34:40.428Z,94682.09
2024-01-03T22:37:10.038Z,94679.44
2024-01-03T22:39:38.187Z,94681.50
2024-01-03T22:42:06.846Z,94684.31
2024-01-03T22:44:36.723Z,94670.66
2024-01-03T22:47:07.796Z,94654.09
2024-01-03T22:49:37.011Z,94660.41
2024-01-03T22:52:08.719Z,94612.44
2024-01-03T22:54:38.498Z,94660.25
2024-01-03T22:57:07.568Z,94662.75
2024-01-03T22:59:37.771Z,94658.50
2024-01-03T23:02:06.480Z,94660.91
2024-01-03T23:04:34.627Z,94654.63
2024-01-03T23:07:03.111Z,94657.28
2024-01-03T23:09:31.478Z,94656.63
2024-01-03T23:11:59.734Z,94662.94
2024-01-03T23:14:27.893Z,94654.44
2024-01-03T23:17:06.449Z,94662.94
2024-01-03T23:19:43.678Z,94670.47
2024-01-03T23:22:12.325Z,94666.22
2024-01-03T23:24:40.499Z,94675.22
2024-01-03T23:27:08.718Z,94663.25
2024-01-03T23:29:36.926Z,94669.38
2024-01-03T23:32:06.973Z,94673.78
2024-01-03T23:34:35.256Z,94673.31
2024-01-03T23:37:03.364Z,94670.50
2024-01-03T23:39:31.544Z,94674.28
2024-01-03T23:41:59.718Z,94655.69
2024-01-03T23:44:27.844Z,94661.50
2024-01-03T23:46:56.165Z,94655.72
2024-01-03T23:49:25.758Z,94658.69
2024-01-03T23:51:54.123Z,94650.03
2024-01-03T23:54:22.219Z,94642.78
2024-01-03T23:56:50.866Z,94640.59
2024-01-03T23:59:19.012Z,94623.94
